Terminal Aerodrome Forecast
Issued by NWS Sterling, VA

Home | Current Version | Previous Version | Text Only | Print | Product List | Glossary On
Versions: 1 2 3 4 5 6 7 8 9 10 11 12 13 14 15 16 17 18 19 20 21 22 23 24 25
000
FTUS41 KLWX 222300 RRA
TAFIAD
TAF
KIAD 222353Z 2300/2406 34010KT P6SM SCT160 BKN250
     FM230400 VRB03KT P6SM SKC
     FM231500 35005KT P6SM FEW250=

USA.gov is the U.S. government's official web portal to all federal, state and local government web resources and services.